createdAt,value
2023-05-08T00:01:02.778Z,101312.20
2023-05-08T00:03:36.564Z,101313.20
2023-05-08T00:06:10.885Z,101309.60
2023-05-08T00:08:44.218Z,101316.00
2023-05-08T00:11:17.489Z,101314.00
2023-05-08T00:13:50.631Z,101322.00
2023-05-08T00:16:23.962Z,101317.40
2023-05-08T00:18:57.209Z,101322.20
2023-05-08T00:21:31.319Z,101321.80
2023-05-08T00:24:04.577Z,101322.80
2023-05-08T00:26:38.078Z,101308.40
2023-05-08T00:29:11.427Z,101316.60
2023-05-08T00:31:44.811Z,101313.00
2023-05-08T00:34:18.365Z,101313.80
2023-05-08T00:36:51.659Z,101316.80
2023-05-08T00:39:24.957Z,101314.20
2023-05-08T00:41:58.169Z,101309.60
2023-05-08T00:44:31.414Z,101308.00
2023-05-08T00:47:04.956Z,101310.80
2023-05-08T00:49:39.174Z,101312.80
2023-05-08T00:52:12.880Z,101313.20
2023-05-08T00:54:47.478Z,101316.60
2023-05-08T00:57:22.044Z,101312.20
2023-05-08T00:59:56.974Z,101312.40
2023-05-08T01:02:32.038Z,101312.00
2023-05-08T01:05:06.089Z,101313.00
2023-05-08T01:07:39.877Z,101319.80
2023-05-08T01:10:14.647Z,101320.20
2023-05-08T01:13:07.203Z,101320.80
2023-05-08T01:15:48.522Z,101319.60
2023-05-08T01:18:29.410Z,101322.40
2023-05-08T01:21:17.109Z,101319.40
2023-05-08T01:24:20.342Z,101319.00
2023-05-08T01:27:38.974Z,101325.20
2023-05-08T01:30:52.350Z,101330.20
2023-05-08T01:33:36.121Z,101330.60
2023-05-08T01:36:24.648Z,101327.80
2023-05-08T01:39:16.656Z,101328.60
2023-05-08T01:42:01.812Z,101324.40
2023-05-08T01:44:42.717Z,101328.60
2023-05-08T01:47:20.945Z,101325.00
2023-05-08T01:50:16.188Z,101324.60
2023-05-08T01:52:54.260Z,101328.20
2023-05-08T01:55:36.581Z,101326.40
2023-05-08T01:58:13.821Z,101327.80
2023-05-08T02:00:49.180Z,101329.00
2023-05-08T02:03:27.050Z,101325.60
2023-05-08T02:06:04.469Z,101327.00
2023-05-08T02:08:38.857Z,101332.80
2023-05-08T02:11:15.869Z,101330.40
2023-05-08T02:13:52.094Z,101332.40
2023-05-08T02:16:27.998Z,101334.20
2023-05-08T02:19:05.781Z,101330.80
2023-05-08T02:21:40.086Z,101339.40
2023-05-08T02:24:14.554Z,101338.60
2023-05-08T02:26:49.461Z,101342.60
2023-05-08T02:29:24.908Z,101343.60
2023-05-08T02:32:02.197Z,101348.20
2023-05-08T02:34:39.465Z,101347.20
2023-05-08T02:37:17.761Z,101343.80
2023-05-08T02:39:52.553Z,101354.60
2023-05-08T02:42:26.280Z,101352.60
2023-05-08T02:45:00.146Z,101354.00
2023-05-08T02:47:44.617Z,101353.40
2023-05-08T02:50:25.450Z,101356.60
2023-05-08T02:53:07.457Z,101361.40
2023-05-08T02:55:49.758Z,101366.00
2023-05-08T02:58:32.261Z,101368.00
2023-05-08T03:01:14.976Z,101365.00
2023-05-08T03:03:59.012Z,101364.20
2023-05-08T03:06:41.352Z,101361.60
2023-05-08T03:09:22.626Z,101360.00
2023-05-08T03:12:10.386Z,101368.20
2023-05-08T03:14:53.175Z,101369.40
2023-05-08T03:17:29.742Z,101368.00
2023-05-08T03:20:10.206Z,101369.40
2023-05-08T03:22:48.535Z,101374.40
2023-05-08T03:25:23.731Z,101376.60
2023-05-08T03:27:59.597Z,101382.20
2023-05-08T03:30:37.664Z,101380.00
2023-05-08T03:33:16.251Z,101381.00
2023-05-08T03:35:51.366Z,101381.40
2023-05-08T03:38:25.334Z,101376.60
2023-05-08T03:41:00.414Z,101376.80
2023-05-08T03:43:34.753Z,101374.00
2023-05-08T03:46:09.065Z,101373.40
2023-05-08T03:48:44.482Z,101374.40
2023-05-08T03:51:19.922Z,101372.00
2023-05-08T03:53:53.170Z,101377.60
2023-05-08T03:56:26.412Z,101378.60
2023-05-08T03:59:10.899Z,101381.80
2023-05-08T04:01:55.401Z,101381.40
2023-05-08T04:04:42.758Z,101386.60
2023-05-08T04:07:29.783Z,101382.20
2023-05-08T04:10:11.420Z,101387.60
2023-05-08T04:12:56.500Z,101387.60
2023-05-08T04:15:38.231Z,101387.80
2023-05-08T04:18:19.029Z,101388.40
2023-05-08T04:20:55.778Z,101358.00
2023-05-08T04:23:31.653Z,101339.00
2023-05-08T04:26:06.243Z,101336.00
2023-05-08T04:28:40.258Z,101333.40
2023-05-08T04:31:15.014Z,101337.40
2023-05-08T04:33:49.218Z,101341.60
2023-05-08T04:36:23.828Z,101340.80
2023-05-08T04:38:58.662Z,101338.60
2023-05-08T04:41:33.268Z,101342.40
2023-05-08T04:44:07.128Z,101340.00
2023-05-08T04:46:41.272Z,101340.80
2023-05-08T04:49:14.592Z,101338.20
2023-05-08T04:51:47.811Z,101337.80
2023-05-08T04:54:21.259Z,101333.80
2023-05-08T04:56:54.436Z,101336.80
2023-05-08T04:59:27.672Z,101323.20
2023-05-08T05:02:02.576Z,101330.20
2023-05-08T05:04:36.694Z,101329.00
2023-05-08T05:07:10.913Z,101324.00
2023-05-08T05:09:44.465Z,101325.00
2023-05-08T05:12:17.707Z,101321.00
2023-05-08T05:14:51.741Z,101311.20
2023-05-08T05:17:25.200Z,101305.00
2023-05-08T05:19:58.588Z,101299.80
2023-05-08T05:22:33.182Z,101281.20
2023-05-08T05:25:07.632Z,101274.20
2023-05-08T05:27:41.380Z,101262.00
2023-05-08T05:30:16.281Z,101265.40
2023-05-08T05:32:50.208Z,101267.20
2023-05-08T05:35:25.451Z,101263.00
2023-05-08T05:37:59.598Z,101267.60
2023-05-08T05:40:33.043Z,101286.20
2023-05-08T05:43:10.359Z,101291.20
2023-05-08T05:45:43.773Z,101287.40
2023-05-08T05:48:17.258Z,101291.80
2023-05-08T05:50:51.638Z,101284.20
2023-05-08T05:53:24.861Z,101284.20
2023-05-08T05:55:58.950Z,101277.80
2023-05-08T05:58:32.201Z,101277.80
2023-05-08T06:01:05.964Z,101265.20
2023-05-08T06:03:39.331Z,101241.80
2023-05-08T06:06:13.469Z,101226.60
2023-05-08T06:08:46.965Z,101229.00
2023-05-08T06:11:20.140Z,101230.20
2023-05-08T06:13:53.579Z,101230.60
2023-05-08T06:16:26.872Z,101256.20
2023-05-08T06:19:00.174Z,101276.80
2023-05-08T06:21:34.637Z,101292.00
2023-05-08T06:24:08.537Z,101303.20
2023-05-08T06:26:41.667Z,101305.40
2023-05-08T06:29:14.886Z,101304.60
2023-05-08T06:31:48.021Z,101313.60
2023-05-08T06:34:21.209Z,101317.20
2023-05-08T06:36:54.426Z,101321.40
2023-05-08T06:39:27.853Z,101327.60
2023-05-08T06:42:01.302Z,101330.00
2023-05-08T06:44:37.457Z,101338.60
2023-05-08T06:47:10.784Z,101340.40
2023-05-08T06:49:44.320Z,101352.20
2023-05-08T06:52:17.602Z,101351.80
2023-05-08T06:54:50.859Z,101353.80
2023-05-08T06:57:27.096Z,101390.80
2023-05-08T07:00:00.309Z,101385.00
2023-05-08T07:02:33.474Z,101450.60
2023-05-08T07:05:07.890Z,101367.60
2023-05-08T07:07:42.747Z,101378.80
2023-05-08T07:10:16.884Z,101385.00
2023-05-08T07:12:50.158Z,101394.20
2023-05-08T07:15:26.511Z,101403.40
2023-05-08T07:18:00.717Z,101423.40
2023-05-08T07:20:34.066Z,101434.60
2023-05-08T07:23:07.878Z,101408.40
2023-05-08T07:25:41.483Z,101412.20
2023-05-08T07:28:14.604Z,101414.80
2023-05-08T07:30:48.417Z,101414.40
2023-05-08T07:33:22.724Z,101411.20
2023-05-08T07:35:55.958Z,101410.40
2023-05-08T07:38:29.290Z,101409.40
2023-05-08T07:41:02.887Z,101413.00
2023-05-08T07:43:37.152Z,101415.20
2023-05-08T07:46:16.954Z,101414.80
2023-05-08T07:48:50.406Z,101427.60
2023-05-08T07:51:23.705Z,101422.40
2023-05-08T07:53:57.052Z,101417.60
2023-05-08T07:56:30.529Z,101417.80
2023-05-08T07:59:03.823Z,101421.60
2023-05-08T08:01:37.011Z,101427.80
2023-05-08T08:04:12.263Z,101428.60
2023-05-08T08:06:46.765Z,101426.80
2023-05-08T08:09:20.040Z,101427.20
2023-05-08T08:11:53.252Z,101431.80
2023-05-08T08:14:26.535Z,101421.60
2023-05-08T08:16:59.951Z,101413.60
2023-05-08T08:19:33.564Z,101414.60
2023-05-08T08:22:07.349Z,101414.40
2023-05-08T08:24:40.964Z,101422.60
2023-05-08T08:27:14.781Z,101411.60
2023-05-08T08:29:48.063Z,101414.20
2023-05-08T08:32:21.308Z,101408.60
2023-05-08T08:34:54.578Z,101409.80
2023-05-08T08:37:27.741Z,101404.60
2023-05-08T08:40:01.561Z,101409.80
2023-05-08T08:42:35.184Z,101409.60
2023-05-08T08:45:10.346Z,101406.60
2023-05-08T08:47:46.647Z,101417.80
2023-05-08T08:50:23.420Z,101408.40
2023-05-08T08:53:07.499Z,101408.20
2023-05-08T08:55:48.243Z,101410.80
2023-05-08T08:58:33.123Z,101402.40
2023-05-08T09:01:09.244Z,101412.40
2023-05-08T09:03:42.959Z,101422.80
2023-05-08T09:06:16.703Z,101419.20
2023-05-08T09:08:51.331Z,101427.00
2023-05-08T09:11:24.510Z,101426.40
2023-05-08T09:13:59.479Z,101426.40
2023-05-08T09:16:32.818Z,101435.00
2023-05-08T09:19:06.756Z,101438.40
2023-05-08T09:21:40.466Z,101466.60
2023-05-08T09:24:13.922Z,101444.60
2023-05-08T09:26:47.084Z,101434.40
2023-05-08T09:29:23.069Z,101443.40
2023-05-08T09:31:57.216Z,101442.60
2023-05-08T09:34:33.382Z,101446.80
2023-05-08T09:37:16.858Z,101449.20
2023-05-08T09:39:50.184Z,101451.80
2023-05-08T09:42:25.447Z,101458.20
2023-05-08T09:44:58.626Z,101474.20
2023-05-08T09:47:32.120Z,101461.00
2023-05-08T09:50:08.544Z,101458.60
2023-05-08T09:52:48.998Z,101455.00
2023-05-08T09:55:22.449Z,101461.60
2023-05-08T09:57:59.903Z,101463.40
2023-05-08T10:00:41.434Z,101456.80
2023-05-08T10:03:14.678Z,101462.60
2023-05-08T10:05:48.518Z,101467.60
2023-05-08T10:08:46.738Z,101459.60
2023-05-08T10:11:21.371Z,101461.20
2023-05-08T10:13:54.620Z,101472.80
2023-05-08T10:16:31.721Z,101454.60
2023-05-08T10:19:11.387Z,101469.60
2023-05-08T10:21:49.463Z,101453.00
2023-05-08T10:24:33.955Z,101462.80
2023-05-08T10:27:14.373Z,101462.00
2023-05-08T10:30:01.778Z,101472.60
2023-05-08T10:32:44.897Z,101474.20
2023-05-08T10:35:20.081Z,101480.20
2023-05-08T10:37:54.885Z,101493.60
2023-05-08T10:40:28.525Z,101487.20
2023-05-08T10:43:03.360Z,101491.00
2023-05-08T10:45:38.262Z,101466.40
2023-05-08T10:48:27.222Z,101484.40
2023-05-08T10:51:11.269Z,101482.40
2023-05-08T10:53:52.467Z,101469.00
2023-05-08T10:56:31.088Z,101479.60
2023-05-08T10:59:04.336Z,101471.40
2023-05-08T11:01:41.382Z,101488.40
2023-05-08T11:04:26.216Z,101475.60
2023-05-08T11:07:00.210Z,101470.80
2023-05-08T11:09:48.785Z,101474.20
2023-05-08T11:12:27.187Z,101473.80
2023-05-08T11:15:07.135Z,101466.80
2023-05-08T11:17:46.724Z,101478.40
2023-05-08T11:20:39.107Z,101470.80
2023-05-08T11:37:08.346Z,101467.80
2023-05-08T11:39:53.668Z,101458.40
2023-05-08T11:42:39.876Z,101456.60
2023-05-08T11:45:18.398Z,101458.00
2023-05-08T11:48:03.939Z,101459.60
2023-05-08T11:50:40.146Z,101448.80
2023-05-08T11:53:14.025Z,101461.40
2023-05-08T11:55:50.392Z,101451.60
2023-05-08T11:58:25.004Z,101459.40
2023-05-08T12:00:58.274Z,101462.80
2023-05-08T12:03:31.879Z,101452.80
2023-05-08T12:06:31.976Z,101449.80
2023-05-08T12:09:14.687Z,101458.60
2023-05-08T12:11:57.276Z,101445.40
2023-05-08T12:14:30.676Z,101451.00
2023-05-08T12:17:06.182Z,101440.80
2023-05-08T12:19:39.442Z,101439.40
2023-05-08T12:22:14.789Z,101437.40
2023-05-08T12:24:48.078Z,101432.00
2023-05-08T12:27:21.958Z,101438.20
2023-05-08T12:29:55.156Z,101432.60
2023-05-08T12:32:29.211Z,101438.20
2023-05-08T12:35:03.382Z,101432.20
2023-05-08T12:37:36.658Z,101436.20
2023-05-08T12:40:27.452Z,101441.80
2023-05-08T12:43:03.579Z,101431.20
2023-05-08T12:45:40.108Z,101442.80
2023-05-08T12:48:16.009Z,101435.40
2023-05-08T12:50:50.048Z,101433.20
2023-05-08T12:53:24.189Z,101436.60
2023-05-08T12:55:59.525Z,101429.00
2023-05-08T12:58:35.551Z,101425.00
2023-05-08T13:01:13.062Z,101416.00
2023-05-08T13:03:50.913Z,101417.80
2023-05-08T13:06:32.724Z,101417.00
2023-05-08T13:09:06.171Z,101421.80
2023-05-08T13:11:39.680Z,101410.20
2023-05-08T13:14:12.861Z,101404.60
2023-05-08T13:16:49.346Z,101398.20
2023-05-08T13:19:22.734Z,101401.00
2023-05-08T13:21:55.925Z,101407.80
2023-05-08T13:24:29.210Z,101406.60
2023-05-08T13:27:03.325Z,101408.00
2023-05-08T13:29:36.459Z,101400.00
2023-05-08T13:32:10.085Z,101398.00
2023-05-08T13:34:49.744Z,101389.80
2023-05-08T13:37:24.392Z,101386.40
2023-05-08T13:39:57.796Z,101386.00
2023-05-08T13:42:31.077Z,101389.20
2023-05-08T13:45:04.526Z,101373.60
2023-05-08T13:47:38.255Z,101377.40
2023-05-08T13:50:14.560Z,101382.60
2023-05-08T13:52:47.794Z,101385.20
2023-05-08T13:55:22.835Z,101371.80
2023-05-08T13:57:56.269Z,101382.40
2023-05-08T14:00:29.717Z,101362.40
2023-05-08T14:03:03.131Z,101367.20
2023-05-08T14:05:36.778Z,101366.00
2023-05-08T14:08:10.980Z,101369.60
2023-05-08T14:10:44.220Z,101380.80
2023-05-08T14:13:17.627Z,101361.60
2023-05-08T14:15:51.069Z,101372.00
2023-05-08T14:18:24.305Z,101363.40
2023-05-08T14:20:57.819Z,101356.80
2023-05-08T14:23:31.258Z,101360.20
2023-05-08T14:26:04.492Z,101369.40
2023-05-08T14:28:37.767Z,101353.00
2023-05-08T14:31:11.075Z,101345.80
2023-05-08T14:33:44.437Z,101348.20
2023-05-08T14:36:17.619Z,101346.40
2023-05-08T14:38:51.346Z,101354.80
2023-05-08T14:41:28.414Z,101351.80
2023-05-08T14:44:02.014Z,101348.80
2023-05-08T14:46:35.267Z,101350.00
2023-05-08T14:49:08.534Z,101351.60
2023-05-08T14:51:41.791Z,101347.80
2023-05-08T14:54:15.170Z,101339.20
2023-05-08T14:56:48.762Z,101345.00
2023-05-08T14:59:22.264Z,101352.20
2023-05-08T15:01:55.567Z,101359.60
2023-05-08T15:04:29.188Z,101358.00
2023-05-08T15:07:03.532Z,101346.40
2023-05-08T15:09:36.902Z,101347.00
2023-05-08T15:12:10.508Z,101349.20
2023-05-08T16:27:28.833Z,101314.00
2023-05-08T16:30:02.189Z,101317.60
2023-05-08T16:32:35.458Z,101314.40
2023-05-08T16:35:11.445Z,101317.80
2023-05-08T16:37:45.210Z,101318.80
2023-05-08T16:40:19.113Z,101320.40
2023-05-08T16:42:52.315Z,101316.60
2023-05-08T16:45:26.183Z,101324.40
2023-05-08T16:47:59.501Z,101317.60
2023-05-08T16:50:33.196Z,101318.40
2023-05-08T16:53:06.959Z,101319.40
2023-05-08T16:55:40.440Z,101323.40
2023-05-08T16:58:13.668Z,101319.60
2023-05-08T17:00:46.980Z,101321.40
2023-05-08T17:03:20.583Z,101327.40
2023-05-08T17:05:54.092Z,101320.00
2023-05-08T17:08:27.491Z,101326.60
2023-05-08T17:11:00.784Z,101314.00
2023-05-08T17:13:34.239Z,101320.40
2023-05-08T17:16:08.820Z,101319.40
2023-05-08T17:18:42.209Z,101320.40
2023-05-08T17:21:15.337Z,101321.00
2023-05-08T17:23:48.491Z,101320.60
2023-05-08T17:26:21.866Z,101318.40
2023-05-08T17:28:55.280Z,101323.60
2023-05-08T17:31:28.577Z,101323.00
2023-05-08T17:34:02.149Z,101323.60
2023-05-08T17:36:35.560Z,101325.60
2023-05-08T17:39:08.742Z,101327.40
2023-05-08T17:41:42.087Z,101334.60
2023-05-08T17:44:15.280Z,101331.00
2023-05-08T17:54:13.943Z,101336.40
2023-05-08T17:56:43.414Z,101338.80
2023-05-08T17:59:12.645Z,101340.80
2023-05-08T18:01:41.826Z,101346.40
2023-05-08T18:04:11.428Z,101345.40
2023-05-08T18:06:42.662Z,101346.60
2023-05-08T18:09:11.666Z,101352.80
2023-05-08T18:11:40.952Z,101353.80
2023-05-08T18:14:10.128Z,101351.20
2023-05-08T18:16:39.218Z,101350.00
2023-05-08T18:19:08.236Z,101359.20
2023-05-08T18:21:37.243Z,101354.40
2023-05-08T18:24:08.459Z,101356.80
2023-05-08T18:26:37.850Z,101361.00
2023-05-08T18:29:06.924Z,101364.40
2023-05-08T18:31:36.186Z,101361.20
2023-05-08T18:34:05.217Z,101360.60
2023-05-08T18:36:34.270Z,101368.60
2023-05-08T18:39:04.046Z,101368.60
2023-05-08T18:41:33.054Z,101372.20
2023-05-08T18:44:04.412Z,101372.60
2023-05-08T18:46:33.520Z,101375.20
2023-05-08T18:49:02.654Z,101379.20
2023-05-08T18:51:31.706Z,101383.80
2023-05-08T18:54:01.078Z,101387.40
2023-05-08T18:56:31.775Z,101387.20
2023-05-08T18:59:00.995Z,101384.40
2023-05-08T19:01:30.174Z,101386.00
2023-05-08T19:03:59.808Z,101386.00
2023-05-08T19:06:29.055Z,101383.40
2023-05-08T19:08:58.047Z,101392.80
2023-05-08T19:11:27.130Z,101395.60
2023-05-08T19:13:56.917Z,101396.80
2023-05-08T19:16:26.399Z,101396.80
2023-05-08T19:18:55.641Z,101398.80
2023-05-08T19:21:24.757Z,101396.20
2023-05-08T19:23:53.788Z,101395.80
2023-05-08T19:26:22.775Z,101392.60
2023-05-08T19:28:51.872Z,101396.80
2023-05-08T19:31:20.902Z,101396.00
2023-05-08T19:33:50.500Z,101397.40
2023-05-08T19:36:19.470Z,101401.80
2023-05-08T19:38:48.474Z,101400.20
2023-05-08T19:41:17.445Z,101393.40
2023-05-08T19:43:46.820Z,101395.20
2023-05-08T19:46:15.916Z,101391.80
2023-05-08T19:48:45.092Z,101388.80
2023-05-08T19:51:15.609Z,101394.80
2023-05-08T19:53:44.623Z,101398.60
2023-05-08T19:56:13.690Z,101393.80
2023-05-08T19:58:42.661Z,101394.60
2023-05-08T20:01:11.663Z,101395.00
2023-05-08T20:03:40.797Z,101395.20
2023-05-08T20:06:10.160Z,101394.20
2023-05-08T20:08:39.138Z,101399.00
2023-05-08T20:11:11.047Z,101398.00
2023-05-08T20:13:40.264Z,101394.60
2023-05-08T20:16:09.908Z,101388.60
2023-05-08T20:18:39.025Z,101391.80
2023-05-08T20:21:08.306Z,101395.80
2023-05-08T20:23:39.031Z,101395.20
2023-05-08T20:26:08.221Z,101391.00
2023-05-08T20:28:37.225Z,101394.80
2023-05-08T20:31:06.322Z,101392.60
2023-05-08T20:33:35.486Z,101387.60
2023-05-08T20:36:05.372Z,101388.80
2023-05-08T20:38:35.814Z,101388.20
2023-05-08T20:41:05.409Z,101388.60
2023-05-08T20:43:34.505Z,101392.20
2023-05-08T20:46:04.004Z,101393.40
2023-05-08T20:48:33.130Z,101393.20
2023-05-08T20:51:02.160Z,101394.40
2023-05-08T20:53:32.114Z,101391.60
2023-05-08T20:56:05.660Z,101402.20
2023-05-08T20:58:43.525Z,101395.40
2023-05-08T21:01:12.737Z,101397.20
2023-05-08T21:03:41.910Z,101389.40
2023-05-08T21:06:10.956Z,101395.80
2023-05-08T21:08:40.242Z,101388.00
2023-05-08T21:11:10.739Z,101387.60
2023-05-08T21:13:39.760Z,101385.40
2023-05-08T21:16:09.280Z,101380.40
2023-05-08T21:18:38.417Z,101378.60
2023-05-08T21:21:16.405Z,101380.00
2023-05-08T21:23:45.906Z,101377.60
2023-05-08T21:26:14.981Z,101380.60
2023-05-08T21:28:44.011Z,101374.60
2023-05-08T21:31:13.039Z,101373.80
2023-05-08T21:33:42.180Z,101370.40
2023-05-08T21:36:11.174Z,101373.00
2023-05-08T21:38:40.853Z,101373.60
2023-05-08T21:41:10.150Z,101367.20
2023-05-08T21:43:39.199Z,101366.60
2023-05-08T21:46:08.652Z,101367.60
2023-05-08T21:48:38.079Z,101370.60
2023-05-08T21:51:07.424Z,101372.80
2023-05-08T21:53:36.620Z,101367.80
2023-05-08T21:56:06.698Z,101370.60
2023-05-08T21:58:35.701Z,101362.20
2023-05-08T22:01:05.207Z,101361.80
2023-05-08T22:03:34.279Z,101362.00
2023-05-08T22:06:04.159Z,101361.40
2023-05-08T22:08:33.402Z,101358.20
2023-05-08T22:11:02.455Z,101362.40
2023-05-08T22:13:31.578Z,101357.60
2023-05-08T22:16:00.710Z,101360.20
2023-05-08T22:18:29.823Z,101352.60
2023-05-08T22:20:59.138Z,101353.80
2023-05-08T22:23:28.232Z,101349.20
2023-05-08T22:25:57.323Z,101350.40
2023-05-08T22:28:26.480Z,101347.20
2023-05-08T22:30:55.565Z,101344.40
2023-05-08T22:33:24.728Z,101341.60
2023-05-08T22:35:53.731Z,101339.00
2023-05-08T22:38:22.806Z,101339.60
2023-05-08T22:40:52.424Z,101338.80
2023-05-08T22:43:21.505Z,101338.20
2023-05-08T22:45:50.714Z,101332.20
2023-05-08T22:48:20.331Z,101332.00
2023-05-08T22:50:50.291Z,101328.80
2023-05-08T22:53:19.290Z,101327.00
2023-05-08T22:55:48.412Z,101326.40
2023-05-08T22:58:17.509Z,101323.80
2023-05-08T23:00:46.493Z,101324.40
2023-05-08T23:03:15.888Z,101329.00
2023-05-08T23:05:44.958Z,101327.20
2023-05-08T23:08:14.094Z,101324.60
2023-05-08T23:10:44.387Z,101333.40
2023-05-08T23:13:13.558Z,101330.60
2023-05-08T23:15:42.748Z,101328.80
2023-05-08T23:18:12.108Z,101321.80
2023-05-08T23:20:41.413Z,101324.60
2023-05-08T23:23:10.435Z,101322.20
2023-05-08T23:25:39.604Z,101326.60
2023-05-08T23:28:08.574Z,101328.60
2023-05-08T23:30:37.640Z,101326.80
2023-05-08T23:33:08.017Z,101322.40
2023-05-08T23:35:37.217Z,101324.60
2023-05-08T23:38:06.223Z,101321.40
2023-05-08T23:40:35.522Z,101316.00
2023-05-08T23:43:05.550Z,101317.20
2023-05-08T23:45:34.592Z,101313.60
2023-05-08T23:48:04.607Z,101315.20
2023-05-08T23:50:33.942Z,101308.80
2023-05-08T23:53:03.007Z,101310.40
2023-05-08T23:55:34.362Z,101307.80
2023-05-08T23:58:03.480Z,101305.40
